createdAt,value
2022-10-17T00:03:54.305Z,12.81
2022-10-17T00:08:55.970Z,12.77
2022-10-17T00:13:57.621Z,12.59
2022-10-17T00:18:59.915Z,12.22
2022-10-17T00:24:01.899Z,12.35
2022-10-17T00:29:03.732Z,12.40
2022-10-17T00:34:05.488Z,12.23
2022-10-17T00:39:07.148Z,12.10
2022-10-17T00:44:30.568Z,12.06
2022-10-17T00:49:36.514Z,12.03
2022-10-17T00:54:43.635Z,11.94
2022-10-17T00:59:50.121Z,11.93
2022-10-17T01:04:55.671Z,11.93
2022-10-17T01:09:57.383Z,11.91
2022-10-17T01:15:09.895Z,11.92
2022-10-17T01:20:15.609Z,11.88
2022-10-17T01:25:36.147Z,11.77
2022-10-17T01:30:53.016Z,11.68
2022-10-17T01:36:04.747Z,11.64
2022-10-17T01:41:16.261Z,11.46
2022-10-17T01:46:28.232Z,11.26
2022-10-17T01:51:45.001Z,11.32
2022-10-17T01:56:51.250Z,11.51
2022-10-17T02:01:55.958Z,11.50
2022-10-17T02:06:57.809Z,11.30
2022-10-17T02:12:36.588Z,11.39
2022-10-17T02:18:01.709Z,11.19
2022-10-17T02:23:26.404Z,11.05
2022-10-17T02:28:28.084Z,10.94
2022-10-17T02:33:35.537Z,10.83
2022-10-17T02:38:40.170Z,10.74
2022-10-17T02:43:45.357Z,10.94
2022-10-17T02:49:28.279Z,10.79
2022-10-17T02:54:52.174Z,10.76
2022-10-17T02:59:57.502Z,10.69
2022-10-17T03:04:59.310Z,10.76
2022-10-17T03:10:01.142Z,10.81
2022-10-17T03:15:04.944Z,10.75
2022-10-17T03:20:07.494Z,10.64
2022-10-17T03:25:09.303Z,10.42
2022-10-17T03:30:11.808Z,10.47
2022-10-17T03:35:15.049Z,10.41
2022-10-17T03:40:20.387Z,10.33
2022-10-17T03:45:22.707Z,10.36
2022-10-17T03:50:24.874Z,10.47
2022-10-17T03:55:27.080Z,10.31
2022-10-17T04:00:28.914Z,10.39
2022-10-17T04:05:33.008Z,10.32
2022-10-17T04:10:34.836Z,10.38
2022-10-17T04:15:37.021Z,10.31
2022-10-17T04:20:39.773Z,10.15
2022-10-17T04:25:42.147Z,10.11
2022-10-17T04:30:45.560Z,10.12
2022-10-17T04:36:02.282Z,10.22
2022-10-17T04:41:08.808Z,10.21
2022-10-17T04:46:13.004Z,10.41
2022-10-17T04:51:20.606Z,10.30
2022-10-17T04:56:43.674Z,10.12
2022-10-17T05:01:45.517Z,10.05
2022-10-17T05:06:48.248Z,10.13
2022-10-17T05:12:10.312Z,10.17
2022-10-17T05:17:16.051Z,10.12
2022-10-17T05:22:17.863Z,10.17
2022-10-17T05:27:19.793Z,10.05
2022-10-17T05:32:21.622Z,10.01
2022-10-17T05:37:23.444Z,9.94
2022-10-17T05:42:28.201Z,10.14
2022-10-17T05:47:32.005Z,10.22
2022-10-17T05:52:34.274Z,10.25
2022-10-17T05:57:44.681Z,10.39
2022-10-17T06:02:50.992Z,10.42
2022-10-17T06:07:57.041Z,10.30
2022-10-17T06:13:02.092Z,10.46
2022-10-17T06:18:04.062Z,10.44
2022-10-17T06:23:06.448Z,10.46
2022-10-17T06:28:31.539Z,10.55
2022-10-17T06:33:33.393Z,10.68
2022-10-17T06:38:35.700Z,10.89
2022-10-17T06:43:48.612Z,11.11
2022-10-17T06:49:10.376Z,11.24
2022-10-17T06:54:18.486Z,11.39
2022-10-17T06:59:36.645Z,11.78
2022-10-17T07:04:46.326Z,12.53
2022-10-17T07:09:48.070Z,13.51
2022-10-17T07:14:51.880Z,14.28
2022-10-17T07:19:54.195Z,13.98
2022-10-17T07:24:56.049Z,13.64
2022-10-17T07:30:16.880Z,13.52
2022-10-17T07:35:42.301Z,13.19
2022-10-17T07:40:45.286Z,13.87
2022-10-17T07:45:46.932Z,14.09
2022-10-17T07:50:49.113Z,14.58
2022-10-17T07:55:51.467Z,15.08
2022-10-17T08:00:53.287Z,15.14
2022-10-17T08:05:58.282Z,16.23
2022-10-17T08:11:05.788Z,17.95
2022-10-17T08:16:10.227Z,20.76
2022-10-17T08:21:13.530Z,21.39
2022-10-17T08:26:17.370Z,21.68
2022-10-17T08:31:20.198Z,21.19
2022-10-17T08:36:22.015Z,20.79
2022-10-17T08:41:53.946Z,20.61
2022-10-17T08:47:00.128Z,21.37
2022-10-17T08:52:14.983Z,24.02
2022-10-17T08:57:17.722Z,26.46
2022-10-17T09:02:37.862Z,24.76
2022-10-17T09:07:57.984Z,24.22
2022-10-17T09:13:18.484Z,25.61
2022-10-17T09:18:31.830Z,24.96
2022-10-17T09:23:45.914Z,25.21
2022-10-17T09:28:54.341Z,25.56
2022-10-17T09:33:57.906Z,24.91
2022-10-17T09:39:05.821Z,24.36
2022-10-17T09:44:21.903Z,24.14
2022-10-17T09:49:32.618Z,23.91
2022-10-17T09:54:48.131Z,23.83
2022-10-17T09:59:59.409Z,24.68
2022-10-17T10:05:17.332Z,26.48
2022-10-17T10:10:28.123Z,30.32
2022-10-17T10:15:37.821Z,31.14
2022-10-17T10:20:40.697Z,31.92
2022-10-17T10:26:00.227Z,31.47
2022-10-17T10:31:09.949Z,31.70
2022-10-17T10:36:11.754Z,32.48
2022-10-17T10:41:13.406Z,36.29
2022-10-17T10:46:27.920Z,35.82
2022-10-17T10:51:37.512Z,35.33
2022-10-17T10:56:48.697Z,33.93
2022-10-17T11:01:52.987Z,36.16
2022-10-17T11:07:01.258Z,33.93
2022-10-17T11:12:12.057Z,35.63
2022-10-17T11:17:23.253Z,36.33
2022-10-17T11:23:00.092Z,33.83
2022-10-17T11:28:05.294Z,33.95
2022-10-17T11:33:12.396Z,34.01
2022-10-17T11:38:25.406Z,32.17
2022-10-17T11:43:38.796Z,33.61
2022-10-17T11:48:49.374Z,33.46
2022-10-17T11:53:57.500Z,30.90
2022-10-17T11:59:31.545Z,31.70
2022-10-17T12:04:39.488Z,31.10
2022-10-17T12:10:19.476Z,31.01
2022-10-17T12:15:23.468Z,31.98
2022-10-17T12:20:28.077Z,31.62
2022-10-17T12:25:33.789Z,30.81
2022-10-17T12:30:35.563Z,31.71
2022-10-17T12:35:38.851Z,30.78
2022-10-17T12:40:48.433Z,31.62
2022-10-17T12:45:58.434Z,32.45
2022-10-17T12:51:34.133Z,30.96
2022-10-17T12:56:45.726Z,32.03
2022-10-17T13:01:52.011Z,31.52
2022-10-17T13:06:58.724Z,32.14
2022-10-17T13:12:04.650Z,31.74
2022-10-17T13:17:07.835Z,30.27
2022-10-17T13:22:19.044Z,30.83
2022-10-17T13:27:35.012Z,29.43
2022-10-17T13:32:39.801Z,29.18
2022-10-17T13:37:43.918Z,28.10
2022-10-17T13:42:46.351Z,28.07
2022-10-17T13:47:48.427Z,27.91
2022-10-17T13:53:06.665Z,26.80
2022-10-17T13:58:18.329Z,26.10
2022-10-17T14:03:21.520Z,26.40
2022-10-17T14:08:23.982Z,26.04
2022-10-17T14:13:29.056Z,25.46
2022-10-17T14:18:36.377Z,24.99
2022-10-17T14:23:41.964Z,23.93
2022-10-17T14:28:46.804Z,24.39
2022-10-17T14:33:51.106Z,23.72
2022-10-17T14:38:53.151Z,23.36
2022-10-17T14:43:58.168Z,23.07
2022-10-17T14:49:07.306Z,22.69
2022-10-17T14:54:26.025Z,22.44
2022-10-17T14:59:52.884Z,21.78
2022-10-17T15:04:49.408Z,21.88
2022-10-17T15:09:52.802Z,21.91
2022-10-17T15:14:54.499Z,21.81
2022-10-17T15:19:57.366Z,21.67
2022-10-17T15:24:59.020Z,21.23
2022-10-17T15:30:00.784Z,21.15
2022-10-17T15:35:02.445Z,21.17
2022-10-17T15:40:04.442Z,20.62
2022-10-17T15:50:15.233Z,19.93
2022-10-17T15:55:17.891Z,19.54
2022-10-17T16:00:24.343Z,19.63
2022-10-17T16:05:26.299Z,19.20
2022-10-17T16:10:28.272Z,19.66
2022-10-17T16:15:29.923Z,19.61
2022-10-17T16:20:32.097Z,19.53
2022-10-17T16:25:34.253Z,19.28
2022-10-17T16:30:42.640Z,19.07
2022-10-17T16:35:45.688Z,18.60
2022-10-17T16:40:47.338Z,18.42
2022-10-17T16:45:48.983Z,18.68
2022-10-17T16:50:50.634Z,18.87
2022-10-17T16:56:03.168Z,18.20
2022-10-17T17:01:07.464Z,18.26
2022-10-17T17:06:13.789Z,18.14
2022-10-17T17:11:17.172Z,18.03
2022-10-17T17:16:23.855Z,17.70
2022-10-17T17:21:27.022Z,17.74
2022-10-17T17:26:31.172Z,17.66
2022-10-17T17:31:34.437Z,17.61
2022-10-17T17:36:38.509Z,17.63
2022-10-17T17:41:41.399Z,17.20
2022-10-17T17:46:43.693Z,16.95
2022-10-17T17:51:46.618Z,16.84
2022-10-17T17:56:48.365Z,16.82
2022-10-17T18:01:50.241Z,16.58
2022-10-17T18:06:51.935Z,16.24
2022-10-17T18:11:54.033Z,16.00
2022-10-17T18:16:55.775Z,15.93
2022-10-17T18:21:57.475Z,15.76
2022-10-17T18:26:59.984Z,15.58
2022-10-17T18:32:01.738Z,15.41
2022-10-17T18:37:03.885Z,15.20
2022-10-17T18:42:05.534Z,15.35
2022-10-17T18:47:07.203Z,15.21
2022-10-17T18:52:08.973Z,14.94
2022-10-17T18:57:10.684Z,14.88
2022-10-17T19:02:15.264Z,14.91
2022-10-17T19:07:18.936Z,14.73
2022-10-17T19:12:20.972Z,14.62
2022-10-17T19:17:22.857Z,14.40
2022-10-17T19:22:24.564Z,14.52
2022-10-17T19:27:26.212Z,14.36
2022-10-17T19:32:29.356Z,14.10
2022-10-17T19:37:32.684Z,14.06
2022-10-17T19:42:35.175Z,14.04
2022-10-17T19:47:36.923Z,14.10
2022-10-17T19:52:38.574Z,13.95
2022-10-17T19:57:40.365Z,13.90
2022-10-17T20:02:42.033Z,13.84
2022-10-17T20:07:43.672Z,13.76
2022-10-17T20:12:45.356Z,13.79
2022-10-17T20:17:47.067Z,13.75
2022-10-17T20:22:48.715Z,13.78
2022-10-17T20:27:50.351Z,13.63
2022-10-17T20:32:55.245Z,13.56
2022-10-17T20:37:57.299Z,13.68
2022-10-17T20:42:58.955Z,13.63
2022-10-17T20:48:00.622Z,13.57
2022-10-17T20:53:24.805Z,13.29
2022-10-17T20:58:23.964Z,13.28
2022-10-17T21:03:26.631Z,13.28
2022-10-17T21:08:28.445Z,13.44
2022-10-17T21:13:30.092Z,13.43
2022-10-17T21:18:31.752Z,13.28
2022-10-17T21:23:33.390Z,13.21
2022-10-17T21:28:35.994Z,13.10
2022-10-17T21:33:37.768Z,13.04
2022-10-17T21:38:40.467Z,12.93
2022-10-17T21:43:43.220Z,13.11
2022-10-17T21:48:45.927Z,13.00
2022-10-17T21:53:47.775Z,13.05
2022-10-17T21:58:51.187Z,12.93
2022-10-17T22:03:55.279Z,12.87
2022-10-17T22:08:57.180Z,12.86
2022-10-17T22:14:07.897Z,12.94
2022-10-17T22:19:11.818Z,12.75
2022-10-17T22:24:15.880Z,12.93
2022-10-17T22:29:18.046Z,12.95
2022-10-17T22:34:19.852Z,13.02
2022-10-17T22:39:21.554Z,12.98
2022-10-17T22:44:23.249Z,12.79
2022-10-17T22:49:24.905Z,12.75
2022-10-17T22:54:26.579Z,12.56
2022-10-17T22:59:28.236Z,12.64
2022-10-17T23:04:29.902Z,12.74
2022-10-17T23:09:31.559Z,12.51
2022-10-17T23:14:33.525Z,12.26
2022-10-17T23:19:35.259Z,12.39
2022-10-17T23:24:36.903Z,12.50
2022-10-17T23:29:38.559Z,12.52
2022-10-17T23:34:40.355Z,12.47
2022-10-17T23:39:42.016Z,12.26
2022-10-17T23:44:43.662Z,12.40
2022-10-17T23:49:45.515Z,12.45
2022-10-17T23:54:47.184Z,12.39
2022-10-17T23:59:48.943Z,12.12
